Time;durP1;ratioP1;P1;durP2;ratioP2;P2;SDS_P1;SDS_P2;PMS_P1;PMS_P2;Temp;Humidity;BMP_temperature;BMP_pressure;BME280_temperature;BME280_humidity;BME280_pressure;Samples;Min_cycle;Max_cycle;Signal;HPM_P1;HPM_P2
2022/04/17 00:00:15;;;;;;;2.08;1.00;;;9.90;39.30;;;;;;2580579;52;21008;-84
2022/04/17 00:02:41;;;;;;;2.33;1.20;;;10.00;38.40;;;;;;2594319;52;21019;-83
2022/04/17 00:05:08;;;;;;;3.47;1.35;;;10.00;38.20;;;;;;2349212;54;21951;-84
2022/04/17 00:07:34;;;;;;;2.40;1.12;;;10.20;38.30;;;;;;2330525;53;21726;-84
2022/04/17 00:10:01;;;;;;;2.80;1.30;;;10.20;38.10;;;;;;2346841;54;21103;-84
2022/04/17 00:12:27;;;;;;;2.50;1.10;;;10.30;38.10;;;;;;2329097;53;20962;-85
2022/04/17 00:14:57;;;;;;;4.62;1.27;;;10.30;37.90;;;;;;2591380;53;21030;-84
2022/04/17 00:17:24;;;;;;;2.67;1.30;;;10.40;37.80;;;;;;2330974;54;20968;-85
2022/04/17 00:19:50;;;;;;;3.45;1.30;;;10.40;37.70;;;;;;2593863;53;21051;-84
2022/04/17 00:22:17;;;;;;;2.83;1.20;;;10.50;37.60;;;;;;2593285;53;20916;-84
2022/04/17 00:24:43;;;;;;;2.72;1.20;;;10.50;37.60;;;;;;2350837;54;21019;-84
2022/04/17 00:27:10;;;;;;;2.60;1.20;;;10.50;37.40;;;;;;2595089;53;21832;-84
2022/04/17 00:29:37;;;;;;;4.12;1.20;;;10.60;37.30;;;;;;2593700;53;20920;-84
2022/04/17 00:32:05;;;;;;;2.35;1.20;;;10.60;37.10;;;;;;2572022;52;21446;-84
2022/04/17 00:34:31;;;;;;;2.42;1.00;;;10.60;37.10;;;;;;2346848;53;20900;-84
2022/04/17 00:37:01;;;;;;;2.30;1.10;;;10.60;36.90;;;;;;2595476;53;20928;-84
2022/04/17 00:39:28;;;;;;;2.97;1.20;;;10.70;37.00;;;;;;2350468;54;21040;-84
2022/04/17 00:41:54;;;;;;;2.00;0.93;;;10.70;36.90;;;;;;2350542;54;21827;-84
2022/04/17 00:44:20;;;;;;;4.10;1.12;;;10.70;36.90;;;;;;2596419;53;20968;-84
2022/04/17 00:46:47;;;;;;;3.70;1.10;;;10.70;36.80;;;;;;2596264;53;21003;-83
2022/04/17 00:49:13;;;;;;;3.05;1.27;;;10.70;36.80;;;;;;2350717;54;20935;-83
2022/04/17 00:51:40;;;;;;;2.47;1.20;;;10.70;36.70;;;;;;2348023;53;21022;-85
2022/04/17 00:54:07;;;;;;;2.22;1.00;;;10.70;36.70;;;;;;2577158;52;21004;-83
2022/04/17 00:56:34;;;;;;;2.33;1.15;;;10.80;36.70;;;;;;2351458;54;21007;-84
2022/04/17 00:59:04;;;;;;;2.47;1.20;;;10.80;36.60;;;;;;2596290;53;22026;-84
2022/04/17 01:01:33;;;;;;;2.58;1.20;;;10.70;36.50;;;;;;2596529;53;21779;-84
2022/04/17 01:04:00;;;;;;;3.75;1.30;;;10.70;36.40;;;;;;2330730;55;20923;-84
2022/04/17 01:06:27;;;;;;;2.53;1.30;;;10.70;36.40;;;;;;2592667;53;21045;-84
2022/04/17 01:08:53;;;;;;;3.12;1.42;;;10.70;36.30;;;;;;2331296;53;20964;-84
2022/04/17 01:11:20;;;;;;;2.75;1.30;;;10.60;36.10;;;;;;2349777;54;21792;-85
2022/04/17 01:13:46;;;;;;;2.70;1.23;;;10.60;36.20;;;;;;2350811;54;20936;-84
2022/04/17 01:16:16;;;;;;;2.90;1.37;;;10.60;36.10;;;;;;2335483;53;20997;-85
2022/04/17 01:19:03;;;;;;;3.22;1.50;;;10.60;36.10;;;;;;2577155;52;20932;-84
2022/04/17 01:21:30;;;;;;;2.45;1.27;;;10.60;36.10;;;;;;2589789;52;20892;-85
2022/04/17 01:27:01;;;;;;;3.50;1.50;;;10.60;36.20;;;;;;2350829;54;20931;-85
2022/04/17 01:29:32;;;;;;;3.22;1.50;;;10.60;36.20;;;;;;2597270;53;20972;-83
2022/04/17 01:31:59;;;;;;;3.78;1.55;;;10.60;36.20;;;;;;2351227;54;20916;-85
2022/04/17 01:34:25;;;;;;;2.97;1.45;;;10.60;36.20;;;;;;2351208;54;20975;-84
2022/04/17 01:36:52;;;;;;;3.08;1.50;;;10.60;36.20;;;;;;2351297;54;20968;-84
2022/04/17 01:39:18;;;;;;;3.50;1.70;;;10.60;36.20;;;;;;2597336;53;20912;-84
2022/04/17 01:41:46;;;;;;;2.65;1.37;;;10.60;36.10;;;;;;2596485;53;20956;-84
2022/04/17 01:44:12;;;;;;;3.12;1.40;;;10.60;36.10;;;;;;2597475;53;21351;-84
2022/04/17 01:46:42;;;;;;;5.78;1.80;;;10.60;36.10;;;;;;2350785;54;21007;-84
2022/04/17 01:49:08;;;;;;;2.55;1.33;;;10.60;36.10;;;;;;2350982;54;21040;-85
2022/04/17 01:51:39;;;;;;;2.58;1.27;;;10.60;36.10;;;;;;2597304;53;21561;-85
2022/04/17 01:54:12;;;;;;;2.78;1.40;;;10.60;36.10;;;;;;2568886;53;21470;-84
2022/04/17 01:56:39;;;;;;;2.95;1.27;;;10.70;36.10;;;;;;2353371;54;21128;-84
2022/04/17 01:59:06;;;;;;;2.03;1.10;;;10.60;36.00;;;;;;2331284;55;20916;-85
2022/04/17 02:01:33;;;;;;;3.03;1.30;;;10.60;36.10;;;;;;2331781;53;20955;-85
2022/04/17 02:04:00;;;;;;;3.00;1.25;;;10.70;36.20;;;;;;2350946;54;20956;-84
2022/04/17 02:06:26;;;;;;;2.65;1.23;;;10.60;36.10;;;;;;2350739;54;20928;-85
2022/04/17 02:08:53;;;;;;;3.60;1.20;;;10.60;36.10;;;;;;2595986;53;20980;-85
2022/04/17 02:11:20;;;;;;;2.78;1.27;;;10.50;36.00;;;;;;2349966;54;21004;-83
2022/04/17 02:13:46;;;;;;;3.37;1.33;;;10.50;36.00;;;;;;2350300;54;20912;-84
2022/04/17 02:16:13;;;;;;;3.37;1.70;;;10.50;36.60;;;;;;2350656;54;20928;-85
2022/04/17 02:18:43;;;;;;;2.83;1.50;;;10.40;36.00;;;;;;2336255;53;20945;-84
2022/04/17 02:21:11;;;;;;;3.17;1.40;;;10.40;36.00;;;;;;2347935;53;20959;-84
2022/04/17 02:23:37;;;;;;;3.50;1.50;;;10.30;36.00;;;;;;2350423;54;20984;-84
2022/04/17 02:26:03;;;;;;;2.87;1.33;;;10.30;36.00;;;;;;2349759;54;20980;-83
2022/04/17 02:28:34;;;;;;;3.58;1.35;;;10.30;36.10;;;;;;2348784;54;20956;-84
2022/04/17 02:31:03;;;;;;;3.42;1.40;;;10.20;36.00;;;;;;2330789;53;20887;-83
2022/04/17 02:33:30;;;;;;;2.78;1.17;;;10.20;36.10;;;;;;2337674;53;20973;-84
2022/04/17 02:35:56;;;;;;;3.10;1.30;;;10.20;36.10;;;;;;2338741;53;20992;-84
2022/04/17 02:38:23;;;;;;;3.45;1.50;;;10.10;36.10;;;;;;2349240;54;20960;-84
2022/04/17 02:40:49;;;;;;;3.83;1.70;;;10.00;36.10;;;;;;2581337;52;21016;-85
2022/04/17 02:43:15;;;;;;;2.97;1.40;;;10.00;36.20;;;;;;2348878;53;21114;-84
2022/04/17 02:45:42;;;;;;;3.53;1.30;;;9.90;37.10;;;;;;2348691;54;20988;-85
2022/04/17 02:48:08;;;;;;;2.47;1.12;;;9.80;37.10;;;;;;2594314;53;20992;-84
2022/04/17 02:50:34;;;;;;;2.75;1.23;;;9.80;37.20;;;;;;2594803;53;21047;-84
2022/04/17 02:53:01;;;;;;;3.75;1.27;;;9.70;37.10;;;;;;2595425;53;21011;-84
2022/04/17 02:55:27;;;;;;;2.55;1.17;;;9.60;37.20;;;;;;2580905;52;20993;-85
2022/04/17 02:57:54;;;;;;;3.70;1.25;;;9.60;37.30;;;;;;2349377;53;21557;-84
2022/04/17 03:00:21;;;;;;;2.50;1.30;;;9.50;37.30;;;;;;2349767;54;20952;-85
2022/04/17 03:05:38;;;;;;;3.62;1.40;;;9.40;37.50;;;;;;2595135;53;21252;-84
2022/04/17 03:08:15;;;;;;;2.70;1.40;;;9.30;37.50;;;;;;2350226;54;20948;-85
2022/04/17 03:10:42;;;;;;;2.90;1.30;;;9.30;37.70;;;;;;2349634;54;20952;-84
2022/04/17 03:13:09;;;;;;;2.28;1.02;;;9.20;37.60;;;;;;2349657;54;20972;-85
2022/04/17 03:15:37;;;;;;;2.90;1.33;;;9.10;37.60;;;;;;2349769;54;20948;-85
2022/04/17 03:18:08;;;;;;;4.25;2.00;;;9.00;37.70;;;;;;2351605;54;20935;-84
2022/04/17 03:20:34;;;;;;;3.30;1.33;;;9.00;37.80;;;;;;2331813;53;21070;-85
2022/04/17 03:23:01;;;;;;;3.83;1.62;;;8.90;37.90;;;;;;2597479;53;20896;-84
2022/04/17 03:25:27;;;;;;;2.62;1.17;;;8.80;38.00;;;;;;2330980;53;21710;-84
2022/04/17 03:27:53;;;;;;;2.65;1.35;;;8.80;38.00;;;;;;2597402;53;21407;-87
2022/04/17 03:30:20;;;;;;;2.80;1.30;;;8.70;38.20;;;;;;2333741;53;20982;-85
2022/04/17 03:32:47;;;;;;;2.95;1.50;;;8.70;38.30;;;;;;2595809;53;20947;-84
2022/04/17 03:35:15;;;;;;;2.90;1.52;;;8.60;38.30;;;;;;2334191;53;20967;-84
2022/04/17 03:37:44;;;;;;;3.67;1.80;;;8.60;38.40;;;;;;2592323;52;20928;-84
2022/04/17 03:40:11;;;;;;;3.17;1.60;;;8.50;38.40;;;;;;2330985;53;21516;-84
2022/04/17 03:42:38;;;;;;;3.30;1.60;;;8.50;38.50;;;;;;2348047;54;21458;-85
2022/04/17 03:45:06;;;;;;;2.92;1.55;;;8.40;38.50;;;;;;2349693;54;20952;-85
2022/04/17 03:47:33;;;;;;;3.25;1.35;;;8.40;38.70;;;;;;2349987;54;20995;-83
2022/04/17 03:50:00;;;;;;;4.97;1.73;;;8.40;38.60;;;;;;2596103;53;21043;-84
2022/04/17 03:52:26;;;;;;;2.30;1.20;;;8.30;38.70;;;;;;2595659;53;20964;-84
2022/04/17 03:54:52;;;;;;;3.15;1.60;;;8.30;38.80;;;;;;2351212;54;21039;-84
2022/04/17 03:57:19;;;;;;;2.60;1.20;;;8.20;38.70;;;;;;2350069;54;20963;-85
2022/04/17 03:59:46;;;;;;;2.92;1.50;;;8.20;38.70;;;;;;2341977;53;21356;-84
2022/04/17 04:02:12;;;;;;;3.53;1.52;;;8.20;38.90;;;;;;2338871;53;21026;-84
2022/04/17 04:04:39;;;;;;;3.30;1.37;;;8.20;39.00;;;;;;2587989;52;20940;-84
2022/04/17 04:07:05;;;;;;;3.12;1.50;;;8.10;39.00;;;;;;2591816;53;21685;-84
2022/04/17 04:09:32;;;;;;;2.92;1.40;;;8.10;39.20;;;;;;2349873;54;20923;-85
2022/04/17 04:11:58;;;;;;;2.92;1.45;;;8.10;39.10;;;;;;2351485;54;21362;-84
2022/04/17 04:14:25;;;;;;;2.70;1.30;;;8.00;39.10;;;;;;2350679;54;20982;-84
2022/04/17 04:16:51;;;;;;;2.53;1.25;;;8.00;39.10;;;;;;2351507;54;20935;-85
2022/04/17 04:19:18;;;;;;;3.20;1.40;;;8.00;39.10;;;;;;2351556;54;21545;-84
2022/04/17 04:21:47;;;;;;;2.92;1.20;;;8.00;39.20;;;;;;2597576;53;20934;-84
2022/04/17 04:24:15;;;;;;;4.57;1.40;;;7.90;39.10;;;;;;2334493;53;21119;-84
2022/04/17 04:26:42;;;;;;;3.67;1.55;;;8.10;39.20;;;;;;2591970;52;20992;-84
2022/04/17 04:29:09;;;;;;;2.62;1.20;;;8.10;39.30;;;;;;2350708;54;20968;-84
2022/04/17 04:31:35;;;;;;;3.92;1.30;;;8.10;39.40;;;;;;2598057;53;20916;-85
2022/04/17 04:34:02;;;;;;;3.15;1.35;;;8.10;39.40;;;;;;2350921;54;20916;-84
2022/04/17 04:36:29;;;;;;;2.60;1.20;;;8.10;39.30;;;;;;2351592;54;20975;-84
2022/04/17 04:38:55;;;;;;;2.58;1.23;;;8.10;39.30;;;;;;2351543;54;20946;-85
2022/04/17 04:41:22;;;;;;;2.25;1.10;;;8.10;39.30;;;;;;2597608;53;20995;-84
2022/04/17 04:43:48;;;;;;;3.10;1.17;;;8.10;39.30;;;;;;2351473;54;20979;-83
2022/04/17 04:46:14;;;;;;;2.62;1.08;;;8.10;39.20;;;;;;2351642;54;20973;-84
2022/04/17 04:51:30;;;;;;;2.62;1.15;;;8.10;39.30;;;;;;2581216;53;20983;-85
2022/04/17 04:53:56;;;;;;;2.20;1.00;;;8.10;39.30;;;;;;2336965;53;21015;-85
2022/04/17 04:56:23;;;;;;;2.60;0.90;;;8.00;39.20;;;;;;2597445;53;22233;-84
2022/04/17 04:58:49;;;;;;;2.55;1.08;;;8.00;39.20;;;;;;2597099;53;21498;-84
2022/04/17 05:01:16;;;;;;;1.90;0.85;;;8.00;39.20;;;;;;2350824;54;21521;-84
2022/04/17 05:03:42;;;;;;;2.42;0.80;;;8.00;39.30;;;;;;2596653;53;20908;-84
2022/04/17 05:06:08;;;;;;;2.85;1.23;;;7.90;39.20;;;;;;2597719;53;20931;-85
2022/04/17 05:08:35;;;;;;;2.10;0.98;;;7.90;39.30;;;;;;2571921;52;20979;-85
2022/04/17 05:11:01;;;;;;;2.15;1.05;;;7.90;39.30;;;;;;2349661;53;21520;-84
2022/04/17 05:13:27;;;;;;;2.50;1.40;;;7.80;39.30;;;;;;2349497;54;20931;-83
2022/04/17 05:15:54;;;;;;;2.70;1.00;;;7.80;39.40;;;;;;2348923;54;20904;-83
2022/04/17 05:18:20;;;;;;;2.35;1.02;;;7.80;39.50;;;;;;2595250;53;20932;-83
2022/04/17 05:20:46;;;;;;;1.98;1.08;;;7.50;39.30;;;;;;2348600;54;20955;-83
2022/04/17 05:23:17;;;;;;;2.60;1.30;;;7.70;39.50;;;;;;2349776;54;20928;-83
2022/04/17 05:25:49;;;;;;;2.60;1.25;;;7.70;39.60;;;;;;2595061;53;20920;-83
2022/04/17 05:28:16;;;;;;;2.67;1.23;;;7.70;39.70;;;;;;2333958;53;21068;-83
2022/04/17 05:30:42;;;;;;;5.07;1.75;;;7.60;40.30;;;;;;2347324;54;21745;-84
2022/04/17 05:33:08;;;;;;;6.85;1.80;;;7.60;39.70;;;;;;2593303;53;21569;-84
2022/04/17 05:35:35;;;;;;;3.87;1.65;;;7.60;39.80;;;;;;2593842;53;21034;-84
2022/04/17 05:38:01;;;;;;;2.83;1.30;;;7.60;39.80;;;;;;2348390;54;21826;-84
2022/04/17 05:40:28;;;;;;;2.95;1.40;;;7.60;39.90;;;;;;2349420;54;21940;-85
2022/04/17 05:42:56;;;;;;;3.85;1.17;;;7.50;40.00;;;;;;2591522;53;21027;-84
2022/04/17 05:45:22;;;;;;;3.33;1.30;;;7.60;40.20;;;;;;2337983;53;21729;-85
2022/04/17 05:47:48;;;;;;;3.87;1.48;;;7.60;40.30;;;;;;2591695;52;21000;-84
2022/04/17 05:50:15;;;;;;;4.65;1.40;;;7.60;40.40;;;;;;2331564;54;21021;-84
2022/04/17 05:52:41;;;;;;;3.03;1.42;;;7.70;40.40;;;;;;2590374;52;21549;-83
2022/04/17 05:55:11;;;;;;;3.15;1.42;;;7.70;40.60;;;;;;2342024;53;21014;-85
2022/04/17 05:57:37;;;;;;;2.25;1.23;;;7.70;40.70;;;;;;2564655;52;21125;-83
2022/04/17 06:00:08;;;;;;;2.45;1.30;;;7.70;40.70;;;;;;2333855;53;20939;-84
2022/04/17 06:02:35;;;;;;;3.62;1.58;;;7.80;40.80;;;;;;2329415;53;20927;-85
2022/04/17 06:05:03;;;;;;;3.17;1.50;;;7.90;40.80;;;;;;2348924;54;21043;-84
2022/04/17 06:07:29;;;;;;;3.62;1.50;;;7.90;40.80;;;;;;2573420;52;21445;-86
2022/04/17 06:09:59;;;;;;;3.70;1.60;;;8.00;40.90;;;;;;2583993;52;20924;-85
2022/04/17 06:12:26;;;;;;;2.83;1.62;;;8.10;41.00;;;;;;2593143;53;20967;-84
2022/04/17 06:14:53;;;;;;;5.28;1.70;;;8.20;41.10;;;;;;2349296;54;20947;-84
2022/04/17 06:17:20;;;;;;;4.85;1.45;;;8.30;41.00;;;;;;2595103;53;20908;-83
2022/04/17 06:19:47;;;;;;;3.22;1.50;;;8.40;41.10;;;;;;2594386;53;21040;-84
2022/04/17 06:22:13;;;;;;;3.37;1.27;;;8.50;41.20;;;;;;2350897;54;20924;-84
2022/04/17 06:24:39;;;;;;;2.62;1.48;;;8.60;41.10;;;;;;2349141;54;20940;-84
2022/04/17 06:27:05;;;;;;;3.78;1.60;;;8.80;41.10;;;;;;2595333;53;21708;-83
2022/04/17 06:29:32;;;;;;;3.15;1.20;;;8.90;41.00;;;;;;2595581;53;20983;-84
2022/04/17 06:31:58;;;;;;;3.58;1.40;;;9.00;41.00;;;;;;2595266;53;20919;-83
2022/04/17 06:34:24;;;;;;;2.55;1.23;;;9.10;40.80;;;;;;2576232;52;21887;-83
2022/04/17 06:36:51;;;;;;;2.22;1.17;;;9.20;40.70;;;;;;2578194;52;20904;-84
2022/04/17 06:39:17;;;;;;;3.12;1.23;;;9.30;40.70;;;;;;2349752;54;20964;-84
2022/04/17 06:41:45;;;;;;;2.62;1.10;;;9.40;40.60;;;;;;2349201;54;20972;-84
2022/04/17 06:44:14;;;;;;;2.85;1.15;;;9.50;40.60;;;;;;2341579;53;20931;-84
2022/04/17 06:46:40;;;;;;;2.37;1.27;;;9.60;40.40;;;;;;2338852;53;20964;-85
2022/04/17 06:49:07;;;;;;;3.25;1.48;;;9.60;40.20;;;;;;2351653;54;20987;-86
2022/04/17 06:51:33;;;;;;;2.42;1.23;;;9.90;40.60;;;;;;2351135;54;20975;-87
2022/04/17 06:54:00;;;;;;;2.20;1.10;;;10.10;40.40;;;;;;2596237;53;21836;-86
2022/04/17 06:56:27;;;;;;;2.22;1.05;;;10.60;41.70;;;;;;2568891;52;21039;-86
2022/04/17 06:58:53;;;;;;;2.50;1.12;;;10.90;42.50;;;;;;2332719;53;20899;-86
2022/04/17 07:01:23;;;;;;;3.05;1.12;;;11.40;42.90;;;;;;2595064;53;20968;-87
2022/04/17 07:03:49;;;;;;;2.42;1.00;;;12.00;43.20;;;;;;2596005;53;21510;-88
2022/04/17 07:06:16;;;;;;;2.50;1.10;;;12.50;43.00;;;;;;2597355;53;20964;-86
2022/04/17 07:08:42;;;;;;;2.67;1.00;;;13.10;42.90;;;;;;2351023;54;20976;-87
2022/04/17 07:11:08;;;;;;;2.15;1.05;;;13.60;42.80;;;;;;2352272;54;20904;-87
2022/04/17 07:13:35;;;;;;;2.55;1.10;;;14.20;42.50;;;;;;2594460;53;20967;-87
2022/04/17 07:16:01;;;;;;;2.00;0.90;;;14.70;42.40;;;;;;2348821;54;20959;-86
2022/04/17 07:18:27;;;;;;;2.10;0.90;;;15.20;42.40;;;;;;2348013;54;20960;-85
2022/04/17 07:20:54;;;;;;;2.55;1.08;;;15.70;42.00;;;;;;2347887;54;21019;-87
2022/04/17 07:23:20;;;;;;;1.80;0.90;;;16.20;41.60;;;;;;2349804;54;21522;-86
2022/04/17 07:25:47;;;;;;;2.62;1.10;;;16.60;41.10;;;;;;2330188;53;20951;-85
2022/04/17 07:28:14;;;;;;;2.35;0.95;;;17.10;40.70;;;;;;2597355;53;20928;-87
2022/04/17 07:30:42;;;;;;;1.87;0.80;;;17.50;40.20;;;;;;2351725;54;20959;-85
2022/04/17 07:33:09;;;;;;;1.98;0.88;;;17.90;39.90;;;;;;2595551;53;20998;-87
2022/04/17 07:35:35;;;;;;;2.50;0.90;;;18.20;39.20;;;;;;2349538;54;20916;-84
2022/04/17 07:38:02;;;;;;;2.00;0.85;;;18.40;38.30;;;;;;2595215;53;20923;-84
2022/04/17 07:40:30;;;;;;;2.10;0.80;;;18.60;37.50;;;;;;2350093;54;20912;-84
2022/04/17 07:43:00;;;;;;;2.87;1.20;;;18.70;36.80;;;;;;2349850;54;20908;-86
2022/04/17 07:45:27;;;;;;;2.92;1.20;;;18.80;36.00;;;;;;2584891;53;21447;-83
2022/04/17 07:47:54;;;;;;;2.97;1.17;;;18.70;35.30;;;;;;2347627;54;21247;-86
2022/04/17 07:50:23;;;;;;;2.47;1.10;;;18.50;34.50;;;;;;2333813;53;20963;-86
2022/04/17 07:52:50;;;;;;;2.45;1.10;;;18.30;33.80;;;;;;2348011;53;20956;-87
2022/04/17 07:55:16;;;;;;;2.72;1.25;;;18.10;33.50;;;;;;2350794;54;20956;-87
2022/04/17 08:01:39;;;;;;;3.05;1.20;;;17.70;33.20;;;;;;2348986;54;20992;-83
2022/04/17 08:04:06;;;;;;;2.20;1.00;;;17.40;33.50;;;;;;2594540;53;20931;-86
2022/04/17 08:06:32;;;;;;;4.25;1.40;;;17.30;33.80;;;;;;2349774;54;21680;-86
2022/04/17 08:09:00;;;;;;;3.33;1.27;;;17.10;34.00;;;;;;2595058;53;20904;-86
2022/04/17 08:11:28;;;;;;;4.82;1.25;;;17.10;34.20;;;;;;2329227;53;20907;-87
2022/04/17 08:13:55;;;;;;;2.72;1.20;;;17.20;34.50;;;;;;2594742;53;20901;-86
2022/04/17 08:16:21;;;;;;;3.00;1.35;;;17.30;35.10;;;;;;2347888;54;21786;-86
2022/04/17 08:18:48;;;;;;;3.08;1.52;;;17.30;35.30;;;;;;2349675;54;21039;-84
2022/04/17 08:21:16;;;;;;;3.33;1.40;;;17.50;35.40;;;;;;2349730;54;20928;-83
2022/04/17 08:23:42;;;;;;;2.70;1.20;;;17.70;35.20;;;;;;2595425;53;22192;-84
2022/04/17 08:26:08;;;;;;;2.67;1.30;;;17.90;34.90;;;;;;2349199;54;20960;-84
2022/04/17 08:28:35;;;;;;;2.92;1.25;;;18.00;34.60;;;;;;2349108;54;21831;-83
2022/04/17 08:31:01;;;;;;;2.47;1.10;;;18.10;34.30;;;;;;2594887;53;21394;-85
2022/04/17 08:33:28;;;;;;;2.58;1.12;;;18.10;33.80;;;;;;2595007;53;21415;-83
2022/04/17 08:35:55;;;;;;;2.58;1.02;;;18.10;33.70;;;;;;2348329;53;21030;-84
2022/04/17 08:38:22;;;;;;;2.30;1.00;;;18.20;34.00;;;;;;2594179;52;20980;-84
2022/04/17 08:40:49;;;;;;;2.62;1.00;;;18.30;34.30;;;;;;2342468;53;20967;-83
2022/04/17 08:43:18;;;;;;;2.33;0.90;;;18.30;34.10;;;;;;2336544;53;21015;-84
2022/04/17 08:45:45;;;;;;;2.58;1.23;;;18.40;33.90;;;;;;2349451;54;21806;-84
2022/04/17 08:48:12;;;;;;;2.92;1.20;;;18.50;33.80;;;;;;2595164;53;20943;-83
2022/04/17 08:50:39;;;;;;;3.03;1.37;;;18.50;33.50;;;;;;2594797;53;21503;-84
2022/04/17 08:53:06;;;;;;;2.87;1.25;;;18.60;33.30;;;;;;2594210;53;20976;-85
2022/04/17 08:55:32;;;;;;;3.55;1.40;;;18.60;33.10;;;;;;2593679;53;20955;-85
2022/04/17 08:57:59;;;;;;;2.45;1.10;;;18.50;32.80;;;;;;2593971;53;20977;-87
2022/04/17 09:00:25;;;;;;;2.80;1.10;;;18.60;32.80;;;;;;2348032;54;21034;-88
2022/04/17 09:02:51;;;;;;;2.50;1.20;;;18.60;32.70;;;;;;2349744;54;21121;-87
2022/04/17 09:05:19;;;;;;;2.85;1.12;;;18.60;32.60;;;;;;2328790;53;20935;-87
2022/04/17 09:07:50;;;;;;;2.75;1.17;;;18.60;32.60;;;;;;2592762;53;21024;-85
2022/04/17 09:10:27;;;;;;;2.78;1.10;;;18.70;32.30;;;;;;2592124;53;21041;-86
2022/04/17 09:13:06;;;;;;;3.92;1.23;;;18.70;32.10;;;;;;2593061;53;21517;-83
2022/04/17 09:15:36;;;;;;;2.37;1.02;;;18.70;32.00;;;;;;2594696;53;20900;-84
2022/04/17 09:18:07;;;;;;;3.35;1.20;;;18.70;31.80;;;;;;2328227;53;21382;-85
2022/04/17 09:20:36;;;;;;;2.35;1.00;;;18.60;31.60;;;;;;2348259;54;20943;-84
2022/04/17 09:23:02;;;;;;;2.50;1.10;;;18.60;31.80;;;;;;2593791;53;20912;-83
2022/04/17 09:25:29;;;;;;;3.45;1.17;;;18.60;31.90;;;;;;2348382;54;21359;-84
2022/04/17 09:27:56;;;;;;;2.67;1.08;;;18.80;31.90;;;;;;2593108;53;20935;-84
2022/04/17 09:30:43;;;;;;;2.80;1.20;;;18.70;31.70;;;;;;2348550;54;21011;-83
2022/04/17 09:33:10;;;;;;;2.70;1.20;;;18.80;31.80;;;;;;2583505;52;21047;-83
2022/04/17 09:35:37;;;;;;;3.10;0.93;;;18.90;31.90;;;;;;2571297;52;21027;-85
2022/04/17 09:38:04;;;;;;;2.10;1.00;;;19.00;31.70;;;;;;2565739;52;20957;-83
2022/04/17 09:40:31;;;;;;;3.05;1.10;;;19.00;31.40;;;;;;2336761;53;20963;-83
2022/04/17 09:43:17;;;;;;;2.67;0.95;;;19.00;31.20;;;;;;2591207;52;20924;-83
2022/04/17 09:46:28;;;;;;;2.42;1.10;;;19.00;30.80;;;;;;2348780;54;20960;-83
2022/04/17 09:48:57;;;;;;;2.08;0.90;;;19.10;31.10;;;;;;2591832;53;20932;-82
2022/04/17 09:51:27;;;;;;;2.28;1.08;;;19.10;31.20;;;;;;2332370;53;20986;-84
2022/04/17 09:54:01;;;;;;;1.95;0.95;;;19.20;31.20;;;;;;2591227;52;21102;-83
2022/04/17 09:56:32;;;;;;;2.30;1.00;;;19.20;31.10;;;;;;2565019;52;20974;-83
2022/04/17 09:58:59;;;;;;;2.92;1.05;;;19.40;31.40;;;;;;2585900;52;21451;-82
2022/04/17 10:01:26;;;;;;;2.83;1.10;;;19.40;31.40;;;;;;2581071;52;21836;-83
2022/04/17 10:03:54;;;;;;;2.50;1.10;;;19.50;31.20;;;;;;2590170;53;20943;-83
2022/04/17 10:06:20;;;;;;;2.08;0.98;;;19.60;31.40;;;;;;2590992;53;20947;-83
2022/04/17 10:08:46;;;;;;;2.95;1.45;;;19.70;31.40;;;;;;2562764;52;21000;-83
2022/04/17 10:11:13;;;;;;;2.42;1.00;;;19.80;31.50;;;;;;2591155;53;20940;-83
2022/04/17 10:13:40;;;;;;;2.25;1.00;;;19.90;31.50;;;;;;2591422;53;21706;-84
2022/04/17 10:16:08;;;;;;;2.80;0.98;;;20.00;31.50;;;;;;2593415;53;20908;-83
2022/04/17 10:18:39;;;;;;;3.25;1.20;;;20.10;31.00;;;;;;2593021;53;21351;-83
2022/04/17 10:21:06;;;;;;;2.80;1.08;;;20.20;30.80;;;;;;2347218;54;20959;-84
2022/04/17 10:23:33;;;;;;;2.72;1.00;;;20.30;30.70;;;;;;2591946;53;20962;-83
2022/04/17 10:26:02;;;;;;;1.65;0.75;;;20.30;30.40;;;;;;2582262;52;21517;-83
2022/04/17 10:28:30;;;;;;;3.67;0.98;;;20.40;30.50;;;;;;2575880;52;20919;-84
2022/04/17 10:31:17;;;;;;;2.35;1.10;;;20.50;30.90;;;;;;2347335;54;20936;-83
2022/04/17 10:40:32;;;;;;;2.97;1.02;;;20.50;30.50;;;;;;2592876;53;20928;-82
2022/04/17 10:43:01;;;;;;;2.15;0.70;;;20.80;31.30;;;;;;2580293;52;20975;-83
2022/04/17 10:45:31;;;;;;;2.67;0.90;;;20.90;30.50;;;;;;2352642;53;21803;-83
2022/04/17 10:48:12;;;;;;;1.98;0.85;;;20.90;30.30;;;;;;2566447;52;21003;-83
2022/04/17 10:50:52;;;;;;;2.67;0.85;;;20.90;30.10;;;;;;2346254;53;20935;-84
2022/04/17 10:53:28;;;;;;;2.87;0.85;;;20.90;30.10;;;;;;2564561;52;20998;-83
2022/04/17 10:56:10;;;;;;;2.22;0.98;;;21.00;29.90;;;;;;2591953;53;20931;-82
2022/04/17 10:58:43;;;;;;;2.22;0.98;;;21.10;30.00;;;;;;2347559;54;20928;-82
2022/04/17 11:01:10;;;;;;;2.50;0.90;;;21.10;30.20;;;;;;2346853;53;20984;-83
2022/04/17 11:03:36;;;;;;;3.28;1.98;;;21.20;30.30;;;;;;2591292;52;20908;-83
2022/04/17 11:06:33;;;;;;;4.82;3.25;;;21.30;30.20;;;;;;2575809;52;20927;-83
2022/04/17 11:09:41;;;;;;;3.47;2.20;;;21.30;29.70;;;;;;2344946;53;21235;-83
2022/04/17 11:12:28;;;;;;;3.10;1.87;;;21.40;29.80;;;;;;2333944;53;21032;-83
2022/04/17 11:15:02;;;;;;;4.00;2.17;;;21.50;29.70;;;;;;2578793;52;20936;-83
2022/04/17 11:17:31;;;;;;;11.00;7.68;;;21.50;30.00;;;;;;2580336;53;21892;-82
2022/04/17 11:19:59;;;;;;;4.45;2.85;;;21.60;29.70;;;;;;2592667;53;20932;-83
2022/04/17 11:22:27;;;;;;;3.55;2.12;;;21.60;29.60;;;;;;2592855;53;20907;-83
2022/04/17 11:25:12;;;;;;;3.60;2.08;;;21.70;29.50;;;;;;2592398;53;21379;-82
2022/04/17 11:27:42;;;;;;;2.87;1.35;;;21.70;29.40;;;;;;2347519;54;20940;-83
2022/04/17 11:30:38;;;;;;;3.33;1.60;;;21.80;29.30;;;;;;2593141;53;21715;-85
2022/04/17 11:33:04;;;;;;;3.10;1.10;;;21.80;29.10;;;;;;2591937;53;22144;-83
2022/04/17 11:35:31;;;;;;;2.50;1.08;;;21.90;29.30;;;;;;2337286;53;21038;-83
2022/04/17 11:38:10;;;;;;;2.17;1.00;;;22.00;29.20;;;;;;2574977;52;20939;-83
2022/04/17 11:40:37;;;;;;;2.97;1.10;;;22.10;29.00;;;;;;2569701;52;20959;-84
2022/04/17 11:43:14;;;;;;;2.28;0.90;;;22.20;29.10;;;;;;2584421;52;21099;-83
2022/04/17 11:45:42;;;;;;;7.45;4.20;;;22.30;28.70;;;;;;2590740;53;21215;-84
2022/04/17 11:48:14;;;;;;;4.00;2.08;;;22.40;28.90;;;;;;2590711;53;21012;-83
2022/04/17 11:50:41;;;;;;;3.00;1.52;;;22.40;28.60;;;;;;2343369;53;21914;-84
2022/04/17 11:53:14;;;;;;;2.80;1.50;;;22.50;28.70;;;;;;2572772;52;21185;-83
2022/04/17 11:55:41;;;;;;;3.97;2.50;;;22.60;28.60;;;;;;2347206;54;20904;-85
2022/04/17 11:58:24;;;;;;;3.08;1.60;;;22.60;28.80;;;;;;2347338;54;20956;-85
2022/04/17 12:01:03;;;;;;;2.33;1.08;;;22.70;28.50;;;;;;2592269;53;20940;-85
2022/04/17 12:03:35;;;;;;;2.33;1.02;;;22.90;28.40;;;;;;2347128;54;20960;-85
2022/04/17 12:06:03;;;;;;;1.55;0.70;;;22.90;28.20;;;;;;2564620;53;21529;-84
2022/04/17 12:08:34;;;;;;;2.10;0.73;;;23.00;28.30;;;;;;2592517;53;21070;-84
2022/04/17 12:11:01;;;;;;;3.50;2.00;;;23.10;27.90;;;;;;2330578;54;21952;-85
2022/04/17 12:13:28;;;;;;;3.60;1.70;;;23.10;28.20;;;;;;2348483;53;21000;-84
2022/04/17 12:16:03;;;;;;;2.60;1.17;;;23.20;28.40;;;;;;2592330;53;21723;-84
2022/04/17 12:18:31;;;;;;;2.37;1.00;;;23.30;28.30;;;;;;2346990;54;20979;-84
2022/04/17 12:20:59;;;;;;;3.20;1.73;;;23.40;28.20;;;;;;2591734;53;21904;-84
2022/04/17 12:23:26;;;;;;;7.87;3.35;;;23.50;27.80;;;;;;2346260;54;21004;-84
2022/04/17 12:25:52;;;;;;;4.50;2.60;;;23.50;27.90;;;;;;2327604;53;20931;-85
2022/04/17 12:28:19;;;;;;;3.95;1.90;;;23.60;27.90;;;;;;2592601;53;20955;-84
2022/04/17 12:30:46;;;;;;;2.10;0.90;;;23.60;27.80;;;;;;2346725;54;21501;-84
2022/04/17 12:33:22;;;;;;;2.97;1.33;;;23.60;27.50;;;;;;2592462;53;20945;-84
2022/04/17 12:36:02;;;;;;;2.22;0.90;;;23.60;27.40;;;;;;2347279;54;20979;-85
2022/04/17 12:38:28;;;;;;;3.00;1.48;;;23.60;27.20;;;;;;2592434;53;20992;-85
2022/04/17 12:40:54;;;;;;;4.78;2.53;;;23.70;27.50;;;;;;2564600;52;21358;-84
2022/04/17 12:43:21;;;;;;;4.18;1.75;;;23.70;27.30;;;;;;2583147;52;20967;-84
2022/04/17 12:46:04;;;;;;;4.20;2.10;;;23.80;27.40;;;;;;2562265;52;21714;-85
2022/04/17 12:48:34;;;;;;;3.83;2.15;;;23.80;26.60;;;;;;2351002;53;20980;-82
2022/04/17 12:51:05;;;;;;;2.33;1.10;;;23.80;27.30;;;;;;2580579;52;20925;-82
2022/04/17 12:53:36;;;;;;;1.73;0.80;;;23.90;26.50;;;;;;2345873;53;20929;-81
2022/04/17 12:56:02;;;;;;;2.00;0.80;;;23.90;26.40;;;;;;2335245;53;20940;-81
2022/04/17 12:58:29;;;;;;;2.08;0.70;;;24.00;26.50;;;;;;2573289;52;21023;-82
2022/04/17 13:00:56;;;;;;;2.10;0.82;;;24.10;26.50;;;;;;2565122;52;22184;-84
2022/04/17 13:03:33;;;;;;;1.98;0.80;;;24.10;25.80;;;;;;2342281;53;21556;-84
2022/04/17 13:05:59;;;;;;;2.05;0.68;;;24.20;25.30;;;;;;2592333;53;20928;-83
2022/04/17 13:08:25;;;;;;;1.87;0.70;;;24.20;25.60;;;;;;2584194;53;20948;-83
2022/04/17 13:10:52;;;;;;;1.23;0.60;;;24.30;25.60;;;;;;2564935;52;20960;-83
2022/04/17 13:13:35;;;;;;;1.27;0.50;;;24.40;25.70;;;;;;2346315;54;21047;-82
2022/04/17 13:16:02;;;;;;;1.20;0.50;;;24.40;25.80;;;;;;2321223;53;21028;-82